createdAt,value
2018-07-25T00:01:13.238Z,19.10
2018-07-25T00:03:41.792Z,19.10
2018-07-25T00:06:10.354Z,19.10
2018-07-25T00:08:39.269Z,19.00
2018-07-25T00:11:07.937Z,19.00
2018-07-25T00:13:36.464Z,19.00
2018-07-25T00:16:04.979Z,18.90
2018-07-25T00:18:33.524Z,18.90
2018-07-25T00:21:02.037Z,18.90
2018-07-25T00:23:30.589Z,18.90
2018-07-25T00:25:59.136Z,18.90
2018-07-25T00:28:27.638Z,18.80
2018-07-25T00:30:56.177Z,18.80
2018-07-25T00:33:24.733Z,18.80
2018-07-25T00:35:53.310Z,18.70
2018-07-25T00:38:21.840Z,18.60
2018-07-25T00:40:50.357Z,18.60
2018-07-25T00:43:18.918Z,18.40
2018-07-25T00:45:47.449Z,18.40
2018-07-25T00:48:16.004Z,18.40
2018-07-25T00:50:44.581Z,18.40
2018-07-25T00:53:13.104Z,18.40
2018-07-25T00:55:41.634Z,18.40
2018-07-25T00:58:10.174Z,18.30
2018-07-25T01:00:38.830Z,18.30
2018-07-25T01:03:07.431Z,18.30
2018-07-25T01:05:36.019Z,18.20
2018-07-25T01:08:04.549Z,18.20
2018-07-25T01:10:33.125Z,18.20
2018-07-25T01:13:01.650Z,18.20
2018-07-25T01:15:30.250Z,18.10
2018-07-25T01:17:58.884Z,18.10
2018-07-25T01:20:27.422Z,18.00
2018-07-25T01:22:55.947Z,18.00
2018-07-25T01:25:24.478Z,18.00
2018-07-25T01:27:53.320Z,18.00
2018-07-25T01:30:21.909Z,18.00
2018-07-25T01:32:50.432Z,18.00
2018-07-25T01:35:19.096Z,18.00
2018-07-25T01:37:47.610Z,18.00
2018-07-25T01:40:16.185Z,18.00
2018-07-25T01:42:44.751Z,18.00
2018-07-25T01:45:13.249Z,17.90
2018-07-25T01:47:41.794Z,17.90
2018-07-25T01:50:10.316Z,17.80
2018-07-25T01:52:38.838Z,17.80
2018-07-25T01:55:08.031Z,17.70
2018-07-25T01:57:36.550Z,17.60
2018-07-25T02:00:05.464Z,17.70
2018-07-25T02:02:33.983Z,17.70
2018-07-25T02:05:02.506Z,17.60
2018-07-25T02:07:31.126Z,17.60
2018-07-25T02:09:59.665Z,17.60
2018-07-25T02:12:28.173Z,17.50
2018-07-25T02:14:56.700Z,17.50
2018-07-25T02:17:25.204Z,17.50
2018-07-25T02:19:53.710Z,17.50
2018-07-25T02:22:22.228Z,17.40
2018-07-25T02:24:50.766Z,17.40
2018-07-25T02:27:19.286Z,17.40
2018-07-25T02:29:47.823Z,17.30
2018-07-25T02:32:16.366Z,17.30
2018-07-25T02:34:44.885Z,17.40
2018-07-25T02:37:13.414Z,17.40
2018-07-25T02:39:41.926Z,17.30
2018-07-25T02:42:10.528Z,17.20
2018-07-25T02:44:39.062Z,17.20
2018-07-25T02:47:07.593Z,17.20
2018-07-25T02:49:36.133Z,17.20
2018-07-25T02:52:04.683Z,17.20
2018-07-25T02:54:33.244Z,17.10
2018-07-25T02:57:01.899Z,17.10
2018-07-25T02:59:30.346Z,17.10
2018-07-25T03:01:58.878Z,17.10
2018-07-25T03:04:27.481Z,17.00
2018-07-25T03:06:56.007Z,17.00
2018-07-25T03:09:24.531Z,17.00
2018-07-25T03:11:53.074Z,17.00
2018-07-25T03:14:21.956Z,16.90
2018-07-25T03:16:50.537Z,17.00
2018-07-25T03:19:19.159Z,16.90
2018-07-25T03:21:47.648Z,16.90
2018-07-25T03:24:16.185Z,16.90
2018-07-25T03:26:44.725Z,16.90
2018-07-25T03:29:13.263Z,16.90
2018-07-25T03:31:41.843Z,17.00
2018-07-25T03:34:10.406Z,17.00
2018-07-25T03:36:38.945Z,16.90
2018-07-25T03:39:07.640Z,17.00
2018-07-25T03:41:36.183Z,16.90
2018-07-25T03:44:05.040Z,16.90
2018-07-25T03:46:33.589Z,16.90
2018-07-25T03:49:02.159Z,16.90
2018-07-25T03:51:30.774Z,16.90
2018-07-25T03:53:59.310Z,16.90
2018-07-25T03:56:27.897Z,16.90
2018-07-25T03:58:56.430Z,17.00
2018-07-25T04:01:24.924Z,16.90
2018-07-25T04:03:53.536Z,16.90
2018-07-25T04:06:22.070Z,16.90
2018-07-25T04:08:50.615Z,16.80
2018-07-25T04:11:19.159Z,16.90
2018-07-25T04:13:47.702Z,16.90
2018-07-25T04:16:16.225Z,16.90
2018-07-25T04:18:44.759Z,17.10
2018-07-25T04:21:13.310Z,17.10
2018-07-25T04:23:41.845Z,17.10
2018-07-25T04:26:10.379Z,17.20
2018-07-25T04:28:38.894Z,17.20
2018-07-25T04:31:07.445Z,17.30
2018-07-25T04:33:35.952Z,17.30
2018-07-25T04:36:04.615Z,17.40
2018-07-25T04:38:33.129Z,17.50
2018-07-25T04:41:01.680Z,17.60
2018-07-25T04:43:30.187Z,17.70
2018-07-25T04:45:58.722Z,17.80
2018-07-25T04:48:27.220Z,17.90
2018-07-25T04:50:55.779Z,18.00
2018-07-25T04:53:24.373Z,18.10
2018-07-25T04:55:52.918Z,18.30
2018-07-25T04:58:21.436Z,18.40
2018-07-25T05:00:49.954Z,18.50
2018-07-25T05:03:18.482Z,18.70
2018-07-25T05:05:47.022Z,18.80
2018-07-25T05:08:15.553Z,19.00
2018-07-25T05:10:44.077Z,19.10
2018-07-25T05:13:12.610Z,19.20
2018-07-25T05:15:41.114Z,19.30
2018-07-25T05:18:09.654Z,19.40
2018-07-25T05:20:38.450Z,19.50
2018-07-25T05:23:07.040Z,19.70
2018-07-25T05:25:35.575Z,19.90
2018-07-25T05:28:04.101Z,20.10
2018-07-25T05:30:32.643Z,20.20
2018-07-25T05:33:01.180Z,20.40
2018-07-25T05:35:29.739Z,20.60
2018-07-25T05:37:58.262Z,20.80
2018-07-25T05:40:26.780Z,21.00
2018-07-25T05:42:55.318Z,21.10
2018-07-25T05:45:23.950Z,21.20
2018-07-25T05:47:52.472Z,21.40
2018-07-25T05:50:21.001Z,21.50
2018-07-25T05:52:49.542Z,21.70
2018-07-25T05:55:18.080Z,21.80
2018-07-25T05:57:46.638Z,21.90
2018-07-25T06:00:15.181Z,22.10
2018-07-25T06:02:43.761Z,22.30
2018-07-25T06:05:12.286Z,22.40
2018-07-25T06:07:40.783Z,22.60
2018-07-25T06:10:10.604Z,22.80
2018-07-25T06:12:39.165Z,22.90
2018-07-25T06:15:07.738Z,23.00
2018-07-25T06:17:37.512Z,23.10
2018-07-25T06:20:08.120Z,23.20
2018-07-25T06:22:36.691Z,23.30
2018-07-25T06:25:05.281Z,23.40
2018-07-25T06:27:33.830Z,23.50
2018-07-25T06:30:02.474Z,23.60
2018-07-25T06:32:31.034Z,23.70
2018-07-25T06:34:59.571Z,23.80
2018-07-25T06:37:28.106Z,23.90
2018-07-25T06:39:56.646Z,24.00
2018-07-25T06:42:25.217Z,24.00
2018-07-25T06:44:53.735Z,24.10
2018-07-25T06:47:22.309Z,24.20
2018-07-25T06:49:50.936Z,24.20
2018-07-25T06:52:19.481Z,24.30
2018-07-25T06:54:48.056Z,24.30
2018-07-25T06:57:16.633Z,24.40
2018-07-25T06:59:45.130Z,24.40
2018-07-25T07:02:13.686Z,24.50
2018-07-25T07:04:42.210Z,24.60
2018-07-25T07:07:10.751Z,24.70
2018-07-25T07:09:39.288Z,24.80
2018-07-25T07:12:08.075Z,24.80
2018-07-25T07:14:36.686Z,24.90
2018-07-25T07:17:05.286Z,24.90
2018-07-25T07:19:33.867Z,25.00
2018-07-25T07:22:02.437Z,25.10
2018-07-25T07:24:30.998Z,25.10
2018-07-25T07:26:59.536Z,25.10
2018-07-25T07:29:28.073Z,25.20
2018-07-25T07:31:56.617Z,25.20
2018-07-25T07:34:25.164Z,25.30
2018-07-25T07:36:53.691Z,25.20
2018-07-25T07:39:22.230Z,25.10
2018-07-25T07:41:50.736Z,25.10
2018-07-25T07:46:47.519Z,25.00
2018-07-25T07:49:16.072Z,25.00
2018-07-25T07:51:44.601Z,25.10
2018-07-25T07:54:13.148Z,25.10
2018-07-25T07:56:41.716Z,25.10
2018-07-25T07:59:10.323Z,25.00
2018-07-25T08:01:38.868Z,24.80
2018-07-25T08:04:07.413Z,24.80
2018-07-25T08:06:36.035Z,24.80
2018-07-25T08:09:07.779Z,24.80
2018-07-25T08:11:36.402Z,24.90
2018-07-25T08:14:04.970Z,25.00
2018-07-25T08:16:33.566Z,25.20
2018-07-25T08:19:02.184Z,25.30
2018-07-25T08:21:30.703Z,25.30
2018-07-25T08:23:59.316Z,25.20
2018-07-25T08:26:27.891Z,25.30
2018-07-25T08:28:56.457Z,25.50
2018-07-25T08:31:25.958Z,25.60
2018-07-25T08:33:54.565Z,25.60
2018-07-25T08:36:23.075Z,25.50
2018-07-25T08:38:51.689Z,25.50
2018-07-25T08:41:20.347Z,25.60
2018-07-25T08:43:49.001Z,25.80
2018-07-25T08:46:19.505Z,26.10
2018-07-25T08:48:48.152Z,26.30
2018-07-25T08:51:16.727Z,26.50
2018-07-25T08:53:45.302Z,26.60
2018-07-25T08:56:13.871Z,26.60
2018-07-25T08:58:45.503Z,26.70
2018-07-25T09:01:14.172Z,26.80
2018-07-25T09:03:42.736Z,26.90
2018-07-25T09:06:11.305Z,27.10
2018-07-25T09:08:39.873Z,27.20
2018-07-25T09:11:08.514Z,27.30
2018-07-25T09:13:37.151Z,27.40
2018-07-25T09:16:05.822Z,27.50
2018-07-25T09:18:34.390Z,27.60
2018-07-25T09:21:03.000Z,27.60
2018-07-25T09:23:31.578Z,27.70
2018-07-25T09:26:00.566Z,27.70
2018-07-25T09:28:29.594Z,27.70
2018-07-25T09:30:58.360Z,27.70
2018-07-25T09:33:26.975Z,27.40
2018-07-25T09:35:55.565Z,27.20
2018-07-25T09:38:24.181Z,27.20
2018-07-25T09:40:53.450Z,27.00
2018-07-25T09:43:22.117Z,27.00
2018-07-25T09:45:50.730Z,27.20
2018-07-25T09:48:19.556Z,27.40
2018-07-25T09:50:48.208Z,27.70
2018-07-25T09:53:16.829Z,28.00
2018-07-25T09:55:45.403Z,28.10
2018-07-25T09:58:13.976Z,28.10
2018-07-25T10:00:47.993Z,28.20
2018-07-25T10:03:17.007Z,28.40
2018-07-25T10:05:47.113Z,28.60
2018-07-25T10:08:16.450Z,28.90
2018-07-25T10:10:45.319Z,29.10
2018-07-25T10:13:14.046Z,29.20
2018-07-25T10:15:42.703Z,29.20
2018-07-25T10:18:11.302Z,29.20
2018-07-25T10:20:39.882Z,29.30
2018-07-25T10:23:08.529Z,29.30
2018-07-25T10:25:37.143Z,29.50
2018-07-25T10:28:06.096Z,29.60
2018-07-25T10:30:34.672Z,29.70
2018-07-25T10:33:03.347Z,29.90
2018-07-25T10:35:31.963Z,30.00
2018-07-25T10:38:00.644Z,30.10
2018-07-25T10:40:29.304Z,30.10
2018-07-25T10:42:57.907Z,30.20
2018-07-25T10:45:26.529Z,30.30
2018-07-25T10:47:55.071Z,30.50
2018-07-25T10:50:23.650Z,30.60
2018-07-25T10:52:52.240Z,30.60
2018-07-25T10:55:20.742Z,30.60
2018-07-25T10:57:49.257Z,30.60
2018-07-25T11:00:17.820Z,30.60
2018-07-25T11:02:46.382Z,30.70
2018-07-25T11:05:14.912Z,30.80
2018-07-25T11:07:43.462Z,30.90
2018-07-25T11:10:12.005Z,31.00
2018-07-25T11:12:40.510Z,31.00
2018-07-25T11:15:09.067Z,31.10
2018-07-25T11:17:37.550Z,31.20
2018-07-25T11:20:06.350Z,31.20
2018-07-25T11:22:34.904Z,31.10
2018-07-25T11:25:03.482Z,30.90
2018-07-25T11:27:32.006Z,30.80
2018-07-25T11:30:00.579Z,30.80
2018-07-25T11:32:29.097Z,30.90
2018-07-25T11:34:57.625Z,31.00
2018-07-25T11:37:26.199Z,31.10
2018-07-25T11:39:54.782Z,31.30
2018-07-25T11:42:23.323Z,31.40
2018-07-25T11:44:51.851Z,31.40
2018-07-25T11:47:20.401Z,31.30
2018-07-25T11:49:48.998Z,31.40
2018-07-25T11:52:17.629Z,31.50
2018-07-25T11:54:46.204Z,31.50
2018-07-25T11:57:15.374Z,31.50
2018-07-25T11:59:43.954Z,31.60
2018-07-25T12:02:12.691Z,31.60
2018-07-25T12:04:41.215Z,31.60
2018-07-25T12:07:09.772Z,31.60
2018-07-25T12:09:38.379Z,31.70
2018-07-25T12:12:06.938Z,31.70
2018-07-25T12:14:35.514Z,31.70
2018-07-25T12:17:04.036Z,31.60
2018-07-25T12:19:32.664Z,31.70
2018-07-25T12:22:01.206Z,31.80
2018-07-25T12:24:29.798Z,31.90
2018-07-25T12:26:58.476Z,32.00
2018-07-25T12:29:27.016Z,32.00
2018-07-25T12:31:55.581Z,31.80
2018-07-25T12:36:52.609Z,31.70
2018-07-25T12:39:21.281Z,31.40
2018-07-25T12:41:49.866Z,31.30
2018-07-25T12:44:18.419Z,31.10
2018-07-25T12:46:46.982Z,31.00
2018-07-25T12:49:15.804Z,31.00
2018-07-25T12:51:44.528Z,30.80
2018-07-25T12:54:13.369Z,30.90
2018-07-25T12:56:41.928Z,31.00
2018-07-25T12:59:10.506Z,31.00
2018-07-25T13:01:39.109Z,31.10
2018-07-25T13:04:07.679Z,31.10
2018-07-25T13:06:36.283Z,31.00
2018-07-25T13:09:08.111Z,31.10
2018-07-25T13:11:37.221Z,31.20
2018-07-25T13:14:05.799Z,31.30
2018-07-25T13:16:34.436Z,31.40
2018-07-25T13:19:03.499Z,31.60
2018-07-25T13:21:32.154Z,31.50
2018-07-25T13:24:00.714Z,31.30
2018-07-25T13:26:29.224Z,31.20
2018-07-25T13:28:57.853Z,30.90
2018-07-25T13:31:26.988Z,30.80
2018-07-25T13:33:55.520Z,30.60
2018-07-25T13:36:26.518Z,30.50
2018-07-25T13:38:55.330Z,30.40
2018-07-25T13:41:23.954Z,30.40
2018-07-25T13:43:52.491Z,30.30
2018-07-25T13:46:21.562Z,30.30
2018-07-25T13:48:49.974Z,30.20
2018-07-25T13:51:18.605Z,30.20
2018-07-25T13:53:47.265Z,30.30
2018-07-25T13:56:15.880Z,30.40
2018-07-25T13:58:44.475Z,30.50
2018-07-25T14:01:13.051Z,30.60
2018-07-25T14:03:41.572Z,30.70
2018-07-25T14:06:10.198Z,30.80
2018-07-25T14:08:38.731Z,30.70
2018-07-25T14:11:07.396Z,30.60
2018-07-25T14:13:36.035Z,30.40
2018-07-25T14:16:04.646Z,30.20
2018-07-25T14:18:34.123Z,30.00
2018-07-25T14:21:02.682Z,29.90
2018-07-25T14:23:31.335Z,29.80
2018-07-25T14:25:59.874Z,29.60
2018-07-25T14:28:28.476Z,29.50
2018-07-25T14:30:57.133Z,29.40
2018-07-25T14:33:25.703Z,29.40
2018-07-25T14:35:54.261Z,29.40
2018-07-25T14:38:23.022Z,29.20
2018-07-25T14:40:51.617Z,29.00
2018-07-25T14:43:20.311Z,29.00
2018-07-25T14:45:48.851Z,29.10
2018-07-25T14:48:17.401Z,29.30
2018-07-25T14:50:46.033Z,29.50
2018-07-25T14:53:14.581Z,29.70
2018-07-25T14:55:43.181Z,29.80
2018-07-25T14:58:11.744Z,29.90
2018-07-25T15:00:40.327Z,29.80
2018-07-25T15:03:08.938Z,29.80
2018-07-25T15:05:37.470Z,29.70
2018-07-25T15:08:06.698Z,29.60
2018-07-25T15:10:35.382Z,29.60
2018-07-25T15:13:03.915Z,29.70
2018-07-25T15:15:32.505Z,29.90
2018-07-25T15:18:01.114Z,30.00
2018-07-25T15:20:29.695Z,30.20
2018-07-25T15:22:58.308Z,30.30
2018-07-25T15:25:26.824Z,30.20
2018-07-25T15:27:55.415Z,30.20
2018-07-25T15:30:23.998Z,30.30
2018-07-25T15:32:52.648Z,30.30
2018-07-25T15:35:21.261Z,30.30
2018-07-25T15:37:49.887Z,30.30
2018-07-25T15:40:18.425Z,30.20
2018-07-25T15:42:47.014Z,30.30
2018-07-25T15:45:15.532Z,30.40
2018-07-25T15:47:44.132Z,30.40
2018-07-25T15:50:12.727Z,30.40
2018-07-25T15:52:41.327Z,30.40
2018-07-25T15:55:09.924Z,30.40
2018-07-25T15:57:38.462Z,30.50
2018-07-25T16:00:08.022Z,30.60
2018-07-25T16:02:36.630Z,30.60
2018-07-25T16:05:05.165Z,30.60
2018-07-25T16:07:33.713Z,30.60
2018-07-25T16:10:02.313Z,30.60
2018-07-25T16:12:30.764Z,30.60
2018-07-25T16:14:59.321Z,30.50
2018-07-25T16:17:27.869Z,30.50
2018-07-25T16:19:56.418Z,30.50
2018-07-25T16:22:24.994Z,30.50
2018-07-25T16:24:53.554Z,30.50
2018-07-25T16:27:22.090Z,30.50
2018-07-25T16:29:50.671Z,30.50
2018-07-25T16:32:19.325Z,30.50
2018-07-25T16:34:47.918Z,30.60
2018-07-25T16:37:16.491Z,30.70
2018-07-25T16:39:45.153Z,30.60
2018-07-25T16:42:13.771Z,30.60
2018-07-25T16:44:42.315Z,30.50
2018-07-25T16:47:10.862Z,30.50
2018-07-25T16:51:11.406Z,30.50
2018-07-25T16:53:39.965Z,30.50
2018-07-25T16:56:08.607Z,30.40
2018-07-25T16:58:37.199Z,30.40
2018-07-25T17:01:05.805Z,30.30
2018-07-25T17:03:34.438Z,30.30
2018-07-25T17:06:03.031Z,30.30
2018-07-25T17:08:31.614Z,30.20
2018-07-25T17:11:00.227Z,30.20
2018-07-25T17:13:28.829Z,30.10
2018-07-25T17:15:57.424Z,30.10
2018-07-25T17:18:25.966Z,30.00
2018-07-25T17:20:54.690Z,29.80
2018-07-25T17:23:23.236Z,29.70
2018-07-25T17:25:51.820Z,29.60
2018-07-25T17:28:20.394Z,29.50
2018-07-25T17:30:48.997Z,29.50
2018-07-25T17:33:18.214Z,29.40
2018-07-25T17:35:46.833Z,29.40
2018-07-25T17:38:15.461Z,29.20
2018-07-25T17:40:44.085Z,29.00
2018-07-25T17:43:12.687Z,28.80
2018-07-25T17:45:41.393Z,28.70
2018-07-25T17:48:10.022Z,28.60
2018-07-25T17:50:38.559Z,28.50
2018-07-25T17:53:07.176Z,28.40
2018-07-25T17:55:35.780Z,28.30
2018-07-25T17:58:04.402Z,28.20
2018-07-25T18:00:32.948Z,28.10
2018-07-25T18:03:01.574Z,28.00
2018-07-25T18:05:30.163Z,27.90
2018-07-25T18:07:58.710Z,27.90
2018-07-25T18:10:27.302Z,27.70
2018-07-25T18:13:01.156Z,27.70
2018-07-25T18:15:29.778Z,27.60
2018-07-25T18:17:58.380Z,27.50
2018-07-25T18:20:26.962Z,27.40
2018-07-25T18:22:55.632Z,27.40
2018-07-25T18:25:24.168Z,27.30
2018-07-25T18:27:52.731Z,27.20
2018-07-25T18:30:21.342Z,27.10
2018-07-25T18:32:49.926Z,27.00
2018-07-25T18:35:18.546Z,27.00
2018-07-25T18:37:47.123Z,26.90
2018-07-25T18:40:15.798Z,26.80
2018-07-25T18:42:44.964Z,26.70
2018-07-25T18:45:13.578Z,26.60
2018-07-25T18:47:42.350Z,26.40
2018-07-25T18:50:11.588Z,26.40
2018-07-25T18:52:40.178Z,26.30
2018-07-25T18:55:09.050Z,26.10
2018-07-25T18:57:37.643Z,26.10
2018-07-25T19:00:06.370Z,26.10
2018-07-25T19:02:34.974Z,26.00
2018-07-25T19:05:05.301Z,25.90
2018-07-25T19:07:33.953Z,25.80
2018-07-25T19:10:02.544Z,25.70
2018-07-25T19:12:31.135Z,25.60
2018-07-25T19:15:05.095Z,25.60
2018-07-25T19:17:33.675Z,25.50
2018-07-25T19:20:02.284Z,25.50
2018-07-25T19:22:31.115Z,25.40
2018-07-25T19:24:59.828Z,25.30
2018-07-25T19:27:28.419Z,25.30
2018-07-25T19:29:57.042Z,25.20
2018-07-25T19:32:25.768Z,25.10
2018-07-25T19:34:54.319Z,25.10
2018-07-25T19:37:23.001Z,25.00
2018-07-25T19:39:51.587Z,25.00
2018-07-25T19:42:20.132Z,24.90
2018-07-25T19:44:48.729Z,24.80
2018-07-25T19:47:17.346Z,24.80
2018-07-25T19:49:46.334Z,24.70
2018-07-25T19:52:15.000Z,24.70
2018-07-25T19:54:43.526Z,24.70
2018-07-25T19:57:12.103Z,24.60
2018-07-25T19:59:40.705Z,24.60
2018-07-25T20:02:09.324Z,24.60
2018-07-25T20:04:38.052Z,24.50
2018-07-25T20:07:06.843Z,24.40
2018-07-25T20:09:35.452Z,24.30
2018-07-25T20:12:04.088Z,24.30
2018-07-25T20:14:38.052Z,24.20
2018-07-25T20:17:06.711Z,24.00
2018-07-25T20:19:35.451Z,24.00
2018-07-25T20:22:04.031Z,23.90
2018-07-25T20:24:32.638Z,23.80
2018-07-25T20:27:01.264Z,23.70
2018-07-25T20:29:29.859Z,23.60
2018-07-25T20:31:58.470Z,23.50
2018-07-25T20:34:27.240Z,23.40
2018-07-25T20:36:55.806Z,23.30
2018-07-25T20:39:24.398Z,23.30
2018-07-25T20:41:53.013Z,23.20
2018-07-25T20:44:21.523Z,23.10
2018-07-25T20:46:50.161Z,23.00
2018-07-25T20:49:18.733Z,23.00
2018-07-25T20:51:47.300Z,22.90
2018-07-25T20:54:15.939Z,22.80
2018-07-25T20:56:44.643Z,22.70
2018-07-25T20:59:13.302Z,22.70
2018-07-25T21:01:41.880Z,22.60
2018-07-25T21:04:10.571Z,22.50
2018-07-25T21:06:39.143Z,22.40
2018-07-25T21:09:08.762Z,22.30
2018-07-25T21:11:37.385Z,22.20
2018-07-25T21:14:05.964Z,22.10
2018-07-25T21:16:34.528Z,22.10
2018-07-25T21:19:03.107Z,22.00
2018-07-25T21:21:31.639Z,21.90
2018-07-25T21:24:00.335Z,21.90
2018-07-25T21:26:28.858Z,21.80
2018-07-25T21:28:57.417Z,21.70
2018-07-25T21:31:25.984Z,21.60
2018-07-25T21:33:54.547Z,21.50
2018-07-25T21:36:23.487Z,21.40
2018-07-25T21:38:52.121Z,21.40
2018-07-25T21:41:20.790Z,21.30
2018-07-25T21:43:49.351Z,21.20
2018-07-25T21:46:17.943Z,21.10
2018-07-25T21:48:46.490Z,21.10
2018-07-25T21:51:15.106Z,21.10
2018-07-25T21:53:43.682Z,21.00
2018-07-25T21:56:12.251Z,21.00
2018-07-25T21:58:40.845Z,20.90
2018-07-25T22:01:15.610Z,20.80
2018-07-25T22:03:44.558Z,20.70
2018-07-25T22:06:13.126Z,20.60
2018-07-25T22:08:41.672Z,20.60
2018-07-25T22:11:10.222Z,20.50
2018-07-25T22:13:43.035Z,20.40
2018-07-25T22:16:11.727Z,20.30
2018-07-25T22:18:40.323Z,20.30
2018-07-25T22:21:08.898Z,20.30
2018-07-25T22:23:37.534Z,20.20
2018-07-25T22:26:06.141Z,20.20
2018-07-25T22:28:34.688Z,20.10
2018-07-25T22:31:03.293Z,20.00
2018-07-25T22:33:31.798Z,20.00
2018-07-25T22:38:28.624Z,20.00
2018-07-25T22:40:57.211Z,19.90
2018-07-25T22:43:25.789Z,19.90
2018-07-25T22:45:54.323Z,19.90
2018-07-25T22:48:22.920Z,19.90
2018-07-25T22:50:51.432Z,19.80
2018-07-25T22:53:19.958Z,19.70
2018-07-25T22:55:48.577Z,19.70
2018-07-25T22:58:17.095Z,19.70
2018-07-25T23:00:45.682Z,19.70
2018-07-25T23:03:14.211Z,19.60
2018-07-25T23:05:42.817Z,19.60
2018-07-25T23:08:11.331Z,19.50
2018-07-25T23:10:39.934Z,19.50
2018-07-25T23:13:08.545Z,19.40
2018-07-25T23:15:37.092Z,19.30
2018-07-25T23:18:05.618Z,19.30
2018-07-25T23:20:34.230Z,19.30
2018-07-25T23:23:02.762Z,19.30
2018-07-25T23:25:31.584Z,19.20
2018-07-25T23:28:00.626Z,19.20
2018-07-25T23:30:29.921Z,19.10
2018-07-25T23:32:58.454Z,19.10
2018-07-25T23:35:27.025Z,19.00
2018-07-25T23:37:55.583Z,19.00
2018-07-25T23:40:24.117Z,18.90
2018-07-25T23:42:52.987Z,18.90
2018-07-25T23:45:21.563Z,18.90
2018-07-25T23:47:50.141Z,18.90
2018-07-25T23:50:18.650Z,18.90
2018-07-25T23:52:47.233Z,18.90
2018-07-25T23:55:15.739Z,18.90
2018-07-25T23:57:44.348Z,18.90
